sensor_id;sensor_type;location;lat;lon;timestamp;P1;durP1;ratioP1;P2;durP2;ratioP2
55146;SDS011;41039;49.830;23.988;2023-06-04T00:01:27;5.13;;;2.13;;
55146;SDS011;41039;49.830;23.988;2023-06-04T00:03:52;6.30;;;2.35;;
55146;SDS011;41039;49.830;23.988;2023-06-04T00:06:18;6.45;;;2.47;;
55146;SDS011;41039;49.830;23.988;2023-06-04T00:08:43;5.30;;;2.33;;
55146;SDS011;41039;49.830;23.988;2023-06-04T00:11:08;3.83;;;1.80;;
55146;SDS011;41039;49.830;23.988;2023-06-04T00:13:33;4.47;;;2.00;;
55146;SDS011;41039;49.830;23.988;2023-06-04T00:15:59;5.43;;;1.98;;
55146;SDS011;41039;49.830;23.988;2023-06-04T00:18:24;5.88;;;2.00;;
55146;SDS011;41039;49.830;23.988;2023-06-04T00:20:49;5.97;;;2.08;;
55146;SDS011;41039;49.830;23.988;2023-06-04T00:23:14;4.82;;;2.28;;
55146;SDS011;41039;49.830;23.988;2023-06-04T00:25:40;6.40;;;1.92;;
55146;SDS011;41039;49.830;23.988;2023-06-04T00:28:05;4.03;;;1.90;;
55146;SDS011;41039;49.830;23.988;2023-06-04T00:30:30;9.30;;;2.65;;
55146;SDS011;41039;49.830;23.988;2023-06-04T00:32:56;5.10;;;1.98;;
55146;SDS011;41039;49.830;23.988;2023-06-04T00:35:21;5.50;;;1.80;;
55146;SDS011;41039;49.830;23.988;2023-06-04T00:37:46;5.22;;;2.28;;
55146;SDS011;41039;49.830;23.988;2023-06-04T00:40:12;3.47;;;1.65;;
55146;SDS011;41039;49.830;23.988;2023-06-04T00:42:37;4.80;;;1.83;;
55146;SDS011;41039;49.830;23.988;2023-06-04T00:45:02;7.18;;;2.25;;
55146;SDS011;41039;49.830;23.988;2023-06-04T00:47:28;4.47;;;2.10;;
55146;SDS011;41039;49.830;23.988;2023-06-04T00:49:53;5.57;;;2.00;;
55146;SDS011;41039;49.830;23.988;2023-06-04T00:52:21;5.38;;;2.10;;
55146;SDS011;41039;49.830;23.988;2023-06-04T00:54:46;3.75;;;1.70;;
55146;SDS011;41039;49.830;23.988;2023-06-04T00:57:11;6.60;;;2.05;;
55146;SDS011;41039;49.830;23.988;2023-06-04T00:59:37;5.60;;;2.22;;
55146;SDS011;41039;49.830;23.988;2023-06-04T01:02:08;5.25;;;1.75;;
55146;SDS011;41039;49.830;23.988;2023-06-04T01:04:37;3.63;;;1.73;;
55146;SDS011;41039;49.830;23.988;2023-06-04T01:07:07;3.50;;;1.75;;
55146;SDS011;41039;49.830;23.988;2023-06-04T01:09:33;5.25;;;2.03;;
55146;SDS011;41039;49.830;23.988;2023-06-04T01:11:59;4.30;;;2.13;;
55146;SDS011;41039;49.830;23.988;2023-06-04T01:14:26;3.55;;;2.10;;
55146;SDS011;41039;49.830;23.988;2023-06-04T01:16:56;5.05;;;1.83;;
55146;SDS011;41039;49.830;23.988;2023-06-04T01:24:50;3.88;;;2.05;;
55146;SDS011;41039;49.830;23.988;2023-06-04T01:27:17;9.27;;;2.40;;
55146;SDS011;41039;49.830;23.988;2023-06-04T01:29:44;4.50;;;2.30;;
55146;SDS011;41039;49.830;23.988;2023-06-04T01:32:09;5.90;;;2.13;;
55146;SDS011;41039;49.830;23.988;2023-06-04T01:34:45;6.00;;;2.20;;
55146;SDS011;41039;49.830;23.988;2023-06-04T01:37:10;4.10;;;1.80;;
55146;SDS011;41039;49.830;23.988;2023-06-04T01:39:36;5.22;;;2.25;;
55146;SDS011;41039;49.830;23.988;2023-06-04T01:42:01;6.18;;;2.42;;
55146;SDS011;41039;49.830;23.988;2023-06-04T01:44:27;5.32;;;2.38;;
55146;SDS011;41039;49.830;23.988;2023-06-04T01:46:52;5.32;;;2.05;;
55146;SDS011;41039;49.830;23.988;2023-06-04T01:49:17;4.20;;;2.00;;
55146;SDS011;41039;49.830;23.988;2023-06-04T01:51:43;5.67;;;2.13;;
55146;SDS011;41039;49.830;23.988;2023-06-04T01:54:08;3.38;;;1.85;;
55146;SDS011;41039;49.830;23.988;2023-06-04T01:56:33;5.73;;;2.30;;
55146;SDS011;41039;49.830;23.988;2023-06-04T01:58:58;4.40;;;2.00;;
55146;SDS011;41039;49.830;23.988;2023-06-04T02:01:24;4.15;;;2.30;;
55146;SDS011;41039;49.830;23.988;2023-06-04T02:03:49;4.20;;;2.28;;
55146;SDS011;41039;49.830;23.988;2023-06-04T02:06:14;5.28;;;2.05;;
55146;SDS011;41039;49.830;23.988;2023-06-04T02:08:40;8.25;;;2.67;;
55146;SDS011;41039;49.830;23.988;2023-06-04T02:11:06;5.68;;;2.15;;
55146;SDS011;41039;49.830;23.988;2023-06-04T02:13:31;4.43;;;2.15;;
55146;SDS011;41039;49.830;23.988;2023-06-04T02:15:56;5.15;;;2.10;;
55146;SDS011;41039;49.830;23.988;2023-06-04T02:18:21;6.45;;;2.55;;
55146;SDS011;41039;49.830;23.988;2023-06-04T02:20:47;6.20;;;2.10;;
55146;SDS011;41039;49.830;23.988;2023-06-04T02:23:13;7.30;;;2.17;;
55146;SDS011;41039;49.830;23.988;2023-06-04T02:25:39;5.53;;;1.98;;
55146;SDS011;41039;49.830;23.988;2023-06-04T02:28:04;5.35;;;1.88;;
55146;SDS011;41039;49.830;23.988;2023-06-04T02:30:30;5.95;;;2.17;;
55146;SDS011;41039;49.830;23.988;2023-06-04T02:32:55;7.53;;;2.03;;
55146;SDS011;41039;49.830;23.988;2023-06-04T02:35:21;4.05;;;2.17;;
55146;SDS011;41039;49.830;23.988;2023-06-04T02:37:48;4.95;;;2.10;;
55146;SDS011;41039;49.830;23.988;2023-06-04T02:40:13;6.00;;;2.10;;
55146;SDS011;41039;49.830;23.988;2023-06-04T02:42:38;5.00;;;2.25;;
55146;SDS011;41039;49.830;23.988;2023-06-04T02:45:04;4.10;;;2.30;;
55146;SDS011;41039;49.830;23.988;2023-06-04T02:47:29;6.53;;;2.03;;
55146;SDS011;41039;49.830;23.988;2023-06-04T02:49:54;5.05;;;2.17;;
55146;SDS011;41039;49.830;23.988;2023-06-04T02:52:20;4.40;;;1.90;;
55146;SDS011;41039;49.830;23.988;2023-06-04T02:54:47;5.28;;;2.28;;
55146;SDS011;41039;49.830;23.988;2023-06-04T02:57:12;4.28;;;1.73;;
55146;SDS011;41039;49.830;23.988;2023-06-04T02:59:38;3.78;;;2.15;;
55146;SDS011;41039;49.830;23.988;2023-06-04T03:02:03;5.22;;;2.10;;
55146;SDS011;41039;49.830;23.988;2023-06-04T03:04:28;5.38;;;2.08;;
55146;SDS011;41039;49.830;23.988;2023-06-04T03:06:59;5.15;;;2.20;;
55146;SDS011;41039;49.830;23.988;2023-06-04T03:09:25;5.07;;;2.22;;
55146;SDS011;41039;49.830;23.988;2023-06-04T03:11:50;7.53;;;2.00;;
55146;SDS011;41039;49.830;23.988;2023-06-04T03:14:16;4.22;;;2.45;;
55146;SDS011;41039;49.830;23.988;2023-06-04T03:16:41;4.10;;;2.20;;
55146;SDS011;41039;49.830;23.988;2023-06-04T03:19:06;6.72;;;2.40;;
55146;SDS011;41039;49.830;23.988;2023-06-04T03:21:31;5.78;;;2.10;;
55146;SDS011;41039;49.830;23.988;2023-06-04T03:23:56;5.33;;;2.30;;
55146;SDS011;41039;49.830;23.988;2023-06-04T03:26:22;5.47;;;2.20;;
55146;SDS011;41039;49.830;23.988;2023-06-04T03:28:47;6.13;;;2.42;;
55146;SDS011;41039;49.830;23.988;2023-06-04T03:31:12;5.05;;;2.00;;
55146;SDS011;41039;49.830;23.988;2023-06-04T03:33:37;6.82;;;2.40;;
55146;SDS011;41039;49.830;23.988;2023-06-04T03:36:03;5.13;;;2.03;;
55146;SDS011;41039;49.830;23.988;2023-06-04T03:38:28;4.63;;;2.28;;
55146;SDS011;41039;49.830;23.988;2023-06-04T03:40:53;4.97;;;1.90;;
55146;SDS011;41039;49.830;23.988;2023-06-04T03:43:19;4.78;;;2.20;;
55146;SDS011;41039;49.830;23.988;2023-06-04T03:45:45;4.47;;;1.92;;
55146;SDS011;41039;49.830;23.988;2023-06-04T03:48:10;4.82;;;2.33;;
55146;SDS011;41039;49.830;23.988;2023-06-04T03:50:36;3.53;;;1.70;;
55146;SDS011;41039;49.830;23.988;2023-06-04T03:53:01;8.07;;;2.53;;
55146;SDS011;41039;49.830;23.988;2023-06-04T03:55:29;5.20;;;2.10;;
55146;SDS011;41039;49.830;23.988;2023-06-04T03:57:57;5.40;;;1.70;;
55146;SDS011;41039;49.830;23.988;2023-06-04T04:00:22;7.28;;;2.28;;
55146;SDS011;41039;49.830;23.988;2023-06-04T04:02:47;5.82;;;1.90;;
55146;SDS011;41039;49.830;23.988;2023-06-04T04:05:12;6.93;;;2.10;;
55146;SDS011;41039;49.830;23.988;2023-06-04T04:07:38;4.97;;;2.00;;
55146;SDS011;41039;49.830;23.988;2023-06-04T04:10:03;8.02;;;2.35;;
55146;SDS011;41039;49.830;23.988;2023-06-04T04:12:30;5.30;;;2.03;;
55146;SDS011;41039;49.830;23.988;2023-06-04T04:14:56;5.38;;;2.08;;
55146;SDS011;41039;49.830;23.988;2023-06-04T04:17:21;5.55;;;1.90;;
55146;SDS011;41039;49.830;23.988;2023-06-04T04:19:46;4.47;;;1.83;;
55146;SDS011;41039;49.830;23.988;2023-06-04T04:22:11;7.22;;;2.13;;
55146;SDS011;41039;49.830;23.988;2023-06-04T04:24:37;6.05;;;2.17;;
55146;SDS011;41039;49.830;23.988;2023-06-04T04:27:03;5.75;;;2.20;;
55146;SDS011;41039;49.830;23.988;2023-06-04T04:29:28;5.90;;;2.10;;
55146;SDS011;41039;49.830;23.988;2023-06-04T04:31:58;4.63;;;2.00;;
55146;SDS011;41039;49.830;23.988;2023-06-04T04:34:25;4.72;;;2.35;;
55146;SDS011;41039;49.830;23.988;2023-06-04T04:36:51;6.15;;;2.30;;
55146;SDS011;41039;49.830;23.988;2023-06-04T04:39:22;6.18;;;2.17;;
55146;SDS011;41039;49.830;23.988;2023-06-04T04:41:48;5.55;;;2.10;;
55146;SDS011;41039;49.830;23.988;2023-06-04T04:44:13;3.53;;;1.98;;
55146;SDS011;41039;49.830;23.988;2023-06-04T04:46:38;4.57;;;2.20;;
55146;SDS011;41039;49.830;23.988;2023-06-04T04:49:03;5.40;;;2.10;;
55146;SDS011;41039;49.830;23.988;2023-06-04T04:51:29;4.53;;;2.33;;
55146;SDS011;41039;49.830;23.988;2023-06-04T04:53:54;4.37;;;2.37;;
55146;SDS011;41039;49.830;23.988;2023-06-04T04:56:20;6.43;;;2.17;;
55146;SDS011;41039;49.830;23.988;2023-06-04T04:58:45;5.53;;;2.38;;
55146;SDS011;41039;49.830;23.988;2023-06-04T05:01:10;5.45;;;2.42;;
55146;SDS011;41039;49.830;23.988;2023-06-04T05:03:35;4.45;;;2.10;;
55146;SDS011;41039;49.830;23.988;2023-06-04T05:06:01;5.00;;;2.38;;
55146;SDS011;41039;49.830;23.988;2023-06-04T05:08:26;4.00;;;2.10;;
55146;SDS011;41039;49.830;23.988;2023-06-04T05:10:51;5.95;;;2.10;;
55146;SDS011;41039;49.830;23.988;2023-06-04T05:13:16;7.55;;;2.25;;
55146;SDS011;41039;49.830;23.988;2023-06-04T05:15:42;4.60;;;2.30;;
55146;SDS011;41039;49.830;23.988;2023-06-04T05:18:08;5.65;;;2.50;;
55146;SDS011;41039;49.830;23.988;2023-06-04T05:20:33;3.78;;;2.10;;
55146;SDS011;41039;49.830;23.988;2023-06-04T05:23:00;6.47;;;2.75;;
55146;SDS011;41039;49.830;23.988;2023-06-04T05:25:25;3.97;;;1.90;;
55146;SDS011;41039;49.830;23.988;2023-06-04T05:27:52;6.60;;;2.00;;
55146;SDS011;41039;49.830;23.988;2023-06-04T05:30:17;4.05;;;1.50;;
55146;SDS011;41039;49.830;23.988;2023-06-04T05:32:42;4.47;;;1.75;;
55146;SDS011;41039;49.830;23.988;2023-06-04T05:35:08;4.63;;;1.35;;
55146;SDS011;41039;49.830;23.988;2023-06-04T05:37:33;3.45;;;1.20;;
55146;SDS011;41039;49.830;23.988;2023-06-04T05:40:03;3.50;;;1.30;;
55146;SDS011;41039;49.830;23.988;2023-06-04T05:42:28;3.28;;;2.17;;
55146;SDS011;41039;49.830;23.988;2023-06-04T05:44:53;5.33;;;1.93;;
55146;SDS011;41039;49.830;23.988;2023-06-04T05:47:18;3.53;;;1.37;;
55146;SDS011;41039;49.830;23.988;2023-06-04T05:49:44;5.20;;;1.40;;
55146;SDS011;41039;49.830;23.988;2023-06-04T05:52:09;4.25;;;1.38;;
55146;SDS011;41039;49.830;23.988;2023-06-04T05:54:35;3.95;;;1.20;;
55146;SDS011;41039;49.830;23.988;2023-06-04T05:57:02;3.30;;;1.02;;
55146;SDS011;41039;49.830;23.988;2023-06-04T05:59:27;3.33;;;1.10;;
55146;SDS011;41039;49.830;23.988;2023-06-04T06:01:52;4.85;;;1.30;;
55146;SDS011;41039;49.830;23.988;2023-06-04T06:04:18;2.92;;;1.65;;
55146;SDS011;41039;49.830;23.988;2023-06-04T06:06:43;5.82;;;1.25;;
55146;SDS011;41039;49.830;23.988;2023-06-04T06:09:09;2.40;;;1.20;;
55146;SDS011;41039;49.830;23.988;2023-06-04T06:11:34;6.72;;;1.33;;
55146;SDS011;41039;49.830;23.988;2023-06-04T06:13:59;5.25;;;1.40;;
55146;SDS011;41039;49.830;23.988;2023-06-04T06:16:25;5.35;;;1.35;;
55146;SDS011;41039;49.830;23.988;2023-06-04T06:18:50;10.77;;;2.20;;
55146;SDS011;41039;49.830;23.988;2023-06-04T06:21:15;7.65;;;1.50;;
55146;SDS011;41039;49.830;23.988;2023-06-04T06:23:40;5.50;;;1.60;;
55146;SDS011;41039;49.830;23.988;2023-06-04T06:26:06;9.27;;;1.95;;
55146;SDS011;41039;49.830;23.988;2023-06-04T06:28:33;15.68;;;2.80;;
55146;SDS011;41039;49.830;23.988;2023-06-04T06:30:58;6.30;;;1.60;;
55146;SDS011;41039;49.830;23.988;2023-06-04T06:33:23;7.07;;;1.87;;
55146;SDS011;41039;49.830;23.988;2023-06-04T06:35:49;12.60;;;2.00;;
55146;SDS011;41039;49.830;23.988;2023-06-04T06:38:14;7.38;;;2.40;;
55146;SDS011;41039;49.830;23.988;2023-06-04T06:40:40;11.77;;;2.65;;
55146;SDS011;41039;49.830;23.988;2023-06-04T06:43:05;8.02;;;2.45;;
55146;SDS011;41039;49.830;23.988;2023-06-04T06:45:30;6.68;;;2.20;;
55146;SDS011;41039;49.830;23.988;2023-06-04T06:47:56;8.18;;;1.77;;
55146;SDS011;41039;49.830;23.988;2023-06-04T06:50:21;7.37;;;1.77;;
55146;SDS011;41039;49.830;23.988;2023-06-04T06:52:46;4.70;;;1.63;;
55146;SDS011;41039;49.830;23.988;2023-06-04T06:55:11;7.78;;;1.98;;
55146;SDS011;41039;49.830;23.988;2023-06-04T06:57:36;7.57;;;1.80;;
55146;SDS011;41039;49.830;23.988;2023-06-04T07:00:02;6.13;;;1.40;;
55146;SDS011;41039;49.830;23.988;2023-06-04T07:02:28;6.13;;;1.38;;
55146;SDS011;41039;49.830;23.988;2023-06-04T07:04:54;4.63;;;1.30;;
55146;SDS011;41039;49.830;23.988;2023-06-04T07:07:19;6.93;;;1.75;;
55146;SDS011;41039;49.830;23.988;2023-06-04T07:09:44;11.25;;;1.73;;
55146;SDS011;41039;49.830;23.988;2023-06-04T07:12:09;11.60;;;1.70;;
55146;SDS011;41039;49.830;23.988;2023-06-04T07:14:35;5.70;;;1.15;;
55146;SDS011;41039;49.830;23.988;2023-06-04T07:17:00;7.75;;;1.60;;
55146;SDS011;41039;49.830;23.988;2023-06-04T07:19:25;9.13;;;1.40;;
55146;SDS011;41039;49.830;23.988;2023-06-04T07:21:53;7.30;;;1.47;;
55146;SDS011;41039;49.830;23.988;2023-06-04T07:24:18;6.80;;;1.13;;
55146;SDS011;41039;49.830;23.988;2023-06-04T07:26:44;9.57;;;1.52;;
55146;SDS011;41039;49.830;23.988;2023-06-04T07:29:09;4.60;;;1.33;;
55146;SDS011;41039;49.830;23.988;2023-06-04T07:31:35;6.75;;;1.33;;
55146;SDS011;41039;49.830;23.988;2023-06-04T07:34:00;5.90;;;1.15;;
55146;SDS011;41039;49.830;23.988;2023-06-04T07:36:25;4.07;;;1.10;;
55146;SDS011;41039;49.830;23.988;2023-06-04T07:38:50;5.72;;;1.25;;
55146;SDS011;41039;49.830;23.988;2023-06-04T07:41:16;6.83;;;1.40;;
55146;SDS011;41039;49.830;23.988;2023-06-04T07:43:42;3.17;;;1.17;;
55146;SDS011;41039;49.830;23.988;2023-06-04T07:46:07;9.68;;;2.75;;
55146;SDS011;41039;49.830;23.988;2023-06-04T07:48:34;6.50;;;2.10;;
55146;SDS011;41039;49.830;23.988;2023-06-04T07:50:59;5.57;;;1.40;;
55146;SDS011;41039;49.830;23.988;2023-06-04T07:53:25;4.47;;;1.20;;
55146;SDS011;41039;49.830;23.988;2023-06-04T07:55:50;3.15;;;0.98;;
55146;SDS011;41039;49.830;23.988;2023-06-04T07:58:16;4.82;;;1.00;;
55146;SDS011;41039;49.830;23.988;2023-06-04T08:00:41;6.78;;;1.00;;
55146;SDS011;41039;49.830;23.988;2023-06-04T08:03:06;5.93;;;1.10;;
55146;SDS011;41039;49.830;23.988;2023-06-04T08:05:32;5.00;;;1.10;;
55146;SDS011;41039;49.830;23.988;2023-06-04T08:07:57;4.90;;;1.20;;
55146;SDS011;41039;49.830;23.988;2023-06-04T08:10:22;6.43;;;0.90;;
55146;SDS011;41039;49.830;23.988;2023-06-04T08:12:47;4.95;;;1.10;;
55146;SDS011;41039;49.830;23.988;2023-06-04T08:15:12;2.80;;;1.10;;
55146;SDS011;41039;49.830;23.988;2023-06-04T08:17:38;3.73;;;1.13;;
55146;SDS011;41039;49.830;23.988;2023-06-04T08:20:03;4.15;;;0.90;;
55146;SDS011;41039;49.830;23.988;2023-06-04T08:22:31;3.88;;;1.20;;
55146;SDS011;41039;49.830;23.988;2023-06-04T08:24:56;4.82;;;1.20;;
55146;SDS011;41039;49.830;23.988;2023-06-04T08:27:21;5.37;;;1.20;;
55146;SDS011;41039;49.830;23.988;2023-06-04T08:29:47;2.07;;;0.90;;
55146;SDS011;41039;49.830;23.988;2023-06-04T08:32:12;4.22;;;1.10;;
55146;SDS011;41039;49.830;23.988;2023-06-04T08:34:38;2.10;;;1.17;;
55146;SDS011;41039;49.830;23.988;2023-06-04T08:37:03;2.77;;;0.87;;
55146;SDS011;41039;49.830;23.988;2023-06-04T08:39:29;2.85;;;0.90;;
55146;SDS011;41039;49.830;23.988;2023-06-04T08:41:55;3.45;;;1.25;;
55146;SDS011;41039;49.830;23.988;2023-06-04T08:44:21;2.70;;;1.52;;
55146;SDS011;41039;49.830;23.988;2023-06-04T08:46:47;5.47;;;1.10;;
55146;SDS011;41039;49.830;23.988;2023-06-04T08:49:15;9.95;;;1.50;;
55146;SDS011;41039;49.830;23.988;2023-06-04T08:51:41;5.78;;;1.23;;
55146;SDS011;41039;49.830;23.988;2023-06-04T08:54:08;3.53;;;1.15;;
55146;SDS011;41039;49.830;23.988;2023-06-04T08:56:34;4.75;;;1.23;;
55146;SDS011;41039;49.830;23.988;2023-06-04T08:59:00;4.88;;;1.17;;
55146;SDS011;41039;49.830;23.988;2023-06-04T09:01:26;7.78;;;1.02;;
55146;SDS011;41039;49.830;23.988;2023-06-04T09:03:51;6.30;;;1.30;;
55146;SDS011;41039;49.830;23.988;2023-06-04T09:06:17;3.60;;;1.20;;
55146;SDS011;41039;49.830;23.988;2023-06-04T09:08:43;5.68;;;0.90;;
55146;SDS011;41039;49.830;23.988;2023-06-04T09:11:09;8.45;;;1.30;;
55146;SDS011;41039;49.830;23.988;2023-06-04T09:13:36;10.30;;;1.50;;
55146;SDS011;41039;49.830;23.988;2023-06-04T09:16:01;3.22;;;1.30;;
55146;SDS011;41039;49.830;23.988;2023-06-04T09:18:27;4.82;;;1.40;;
55146;SDS011;41039;49.830;23.988;2023-06-04T09:23:27;3.90;;;1.10;;
55146;SDS011;41039;49.830;23.988;2023-06-04T09:25:53;4.68;;;1.38;;
55146;SDS011;41039;49.830;23.988;2023-06-04T09:28:18;2.75;;;1.60;;
55146;SDS011;41039;49.830;23.988;2023-06-04T09:30:51;2.72;;;1.20;;
55146;SDS011;41039;49.830;23.988;2023-06-04T09:33:17;5.10;;;1.40;;
55146;SDS011;41039;49.830;23.988;2023-06-04T09:35:42;2.33;;;1.10;;
55146;SDS011;41039;49.830;23.988;2023-06-04T09:38:17;2.45;;;1.00;;
55146;SDS011;41039;49.830;23.988;2023-06-04T09:40:42;7.47;;;1.00;;
55146;SDS011;41039;49.830;23.988;2023-06-04T09:43:08;2.95;;;1.38;;
55146;SDS011;41039;49.830;23.988;2023-06-04T09:45:35;2.13;;;1.00;;
55146;SDS011;41039;49.830;23.988;2023-06-04T09:48:01;2.53;;;1.05;;
55146;SDS011;41039;49.830;23.988;2023-06-04T09:50:30;3.45;;;0.85;;
55146;SDS011;41039;49.830;23.988;2023-06-04T09:52:55;5.93;;;1.15;;
55146;SDS011;41039;49.830;23.988;2023-06-04T09:55:21;5.43;;;1.10;;
55146;SDS011;41039;49.830;23.988;2023-06-04T09:57:47;3.83;;;0.93;;
55146;SDS011;41039;49.830;23.988;2023-06-04T10:00:16;2.88;;;1.20;;
55146;SDS011;41039;49.830;23.988;2023-06-04T10:02:41;6.25;;;1.10;;
55146;SDS011;41039;49.830;23.988;2023-06-04T10:05:08;2.58;;;1.02;;
55146;SDS011;41039;49.830;23.988;2023-06-04T10:07:34;4.60;;;1.05;;
55146;SDS011;41039;49.830;23.988;2023-06-04T10:10:02;8.90;;;1.13;;
55146;SDS011;41039;49.830;23.988;2023-06-04T10:12:29;7.88;;;2.10;;
55146;SDS011;41039;49.830;23.988;2023-06-04T10:15:00;4.72;;;2.15;;
55146;SDS011;41039;49.830;23.988;2023-06-04T10:17:27;3.70;;;0.80;;
55146;SDS011;41039;49.830;23.988;2023-06-04T10:19:53;3.25;;;0.90;;
55146;SDS011;41039;49.830;23.988;2023-06-04T10:22:20;3.72;;;1.10;;
55146;SDS011;41039;49.830;23.988;2023-06-04T10:24:45;4.18;;;0.90;;
55146;SDS011;41039;49.830;23.988;2023-06-04T10:27:12;2.90;;;0.90;;
55146;SDS011;41039;49.830;23.988;2023-06-04T10:29:38;2.28;;;1.00;;
55146;SDS011;41039;49.830;23.988;2023-06-04T10:32:03;3.03;;;1.05;;
55146;SDS011;41039;49.830;23.988;2023-06-04T10:34:29;3.20;;;1.10;;
55146;SDS011;41039;49.830;23.988;2023-06-04T10:36:55;2.65;;;0.93;;
55146;SDS011;41039;49.830;23.988;2023-06-04T10:39:26;3.95;;;1.67;;
55146;SDS011;41039;49.830;23.988;2023-06-04T10:42:02;3.25;;;1.20;;
55146;SDS011;41039;49.830;23.988;2023-06-04T10:44:29;3.83;;;1.20;;
55146;SDS011;41039;49.830;23.988;2023-06-04T10:46:54;5.25;;;1.30;;
55146;SDS011;41039;49.830;23.988;2023-06-04T10:49:26;2.47;;;1.10;;
55146;SDS011;41039;49.830;23.988;2023-06-04T10:51:52;3.47;;;1.05;;
55146;SDS011;41039;49.830;23.988;2023-06-04T10:54:24;3.53;;;1.07;;
55146;SDS011;41039;49.830;23.988;2023-06-04T10:56:50;4.55;;;1.10;;
55146;SDS011;41039;49.830;23.988;2023-06-04T10:59:16;2.78;;;0.90;;
55146;SDS011;41039;49.830;23.988;2023-06-04T11:01:42;2.60;;;1.10;;
55146;SDS011;41039;49.830;23.988;2023-06-04T11:04:17;4.65;;;1.00;;
55146;SDS011;41039;49.830;23.988;2023-06-04T11:06:42;1.90;;;0.98;;
55146;SDS011;41039;49.830;23.988;2023-06-04T11:09:08;2.55;;;1.30;;
55146;SDS011;41039;49.830;23.988;2023-06-04T11:11:39;3.55;;;1.10;;
55146;SDS011;41039;49.830;23.988;2023-06-04T11:14:08;3.78;;;1.50;;
55146;SDS011;41039;49.830;23.988;2023-06-04T11:16:34;2.25;;;1.13;;
55146;SDS011;41039;49.830;23.988;2023-06-04T11:18:59;2.40;;;0.90;;
55146;SDS011;41039;49.830;23.988;2023-06-04T11:21:24;3.73;;;1.20;;
55146;SDS011;41039;49.830;23.988;2023-06-04T11:23:54;3.58;;;1.23;;
55146;SDS011;41039;49.830;23.988;2023-06-04T11:26:20;2.70;;;0.90;;
55146;SDS011;41039;49.830;23.988;2023-06-04T11:28:48;1.63;;;0.95;;
55146;SDS011;41039;49.830;23.988;2023-06-04T11:31:13;2.53;;;1.35;;
55146;SDS011;41039;49.830;23.988;2023-06-04T11:33:45;3.00;;;0.90;;
55146;SDS011;41039;49.830;23.988;2023-06-04T11:36:21;1.80;;;0.90;;
55146;SDS011;41039;49.830;23.988;2023-06-04T11:38:59;2.67;;;1.20;;
55146;SDS011;41039;49.830;23.988;2023-06-04T11:41:29;2.25;;;1.15;;
55146;SDS011;41039;49.830;23.988;2023-06-04T11:44:00;5.75;;;1.70;;
55146;SDS011;41039;49.830;23.988;2023-06-04T11:46:25;4.13;;;1.40;;
55146;SDS011;41039;49.830;23.988;2023-06-04T11:48:51;2.92;;;1.10;;
55146;SDS011;41039;49.830;23.988;2023-06-04T11:51:17;6.72;;;1.42;;
55146;SDS011;41039;49.830;23.988;2023-06-04T11:53:44;4.07;;;1.10;;
55146;SDS011;41039;49.830;23.988;2023-06-04T11:56:09;3.08;;;1.35;;
55146;SDS011;41039;49.830;23.988;2023-06-04T11:58:36;3.70;;;1.55;;
55146;SDS011;41039;49.830;23.988;2023-06-04T12:01:01;3.95;;;1.20;;
55146;SDS011;41039;49.830;23.988;2023-06-04T12:03:36;3.13;;;1.10;;
55146;SDS011;41039;49.830;23.988;2023-06-04T12:06:12;4.28;;;1.58;;
55146;SDS011;41039;49.830;23.988;2023-06-04T12:08:53;3.45;;;1.50;;
55146;SDS011;41039;49.830;23.988;2023-06-04T12:11:25;4.32;;;1.20;;
55146;SDS011;41039;49.830;23.988;2023-06-04T12:13:57;4.53;;;1.00;;
55146;SDS011;41039;49.830;23.988;2023-06-04T12:16:23;2.42;;;1.00;;
55146;SDS011;41039;49.830;23.988;2023-06-04T12:18:48;5.60;;;1.48;;
55146;SDS011;41039;49.830;23.988;2023-06-04T12:21:22;5.25;;;1.67;;
55146;SDS011;41039;49.830;23.988;2023-06-04T12:23:51;3.55;;;1.35;;
55146;SDS011;41039;49.830;23.988;2023-06-04T12:26:20;4.75;;;1.30;;
55146;SDS011;41039;49.830;23.988;2023-06-04T12:29:00;2.70;;;1.13;;
55146;SDS011;41039;49.830;23.988;2023-06-04T12:31:25;3.53;;;1.30;;
55146;SDS011;41039;49.830;23.988;2023-06-04T12:33:50;4.30;;;1.53;;
55146;SDS011;41039;49.830;23.988;2023-06-04T12:36:15;3.80;;;1.00;;
55146;SDS011;41039;49.830;23.988;2023-06-04T12:38:40;3.57;;;1.53;;
55146;SDS011;41039;49.830;23.988;2023-06-04T12:41:06;2.73;;;1.30;;
55146;SDS011;41039;49.830;23.988;2023-06-04T12:43:31;4.77;;;1.63;;
55146;SDS011;41039;49.830;23.988;2023-06-04T12:45:59;3.00;;;1.30;;
55146;SDS011;41039;49.830;23.988;2023-06-04T12:48:24;5.30;;;1.95;;
55146;SDS011;41039;49.830;23.988;2023-06-04T12:50:50;1.90;;;1.15;;
55146;SDS011;41039;49.830;23.988;2023-06-04T12:53:15;4.70;;;1.47;;
55146;SDS011;41039;49.830;23.988;2023-06-04T12:55:40;3.83;;;1.50;;
55146;SDS011;41039;49.830;23.988;2023-06-04T12:58:05;2.55;;;1.27;;
55146;SDS011;41039;49.830;23.988;2023-06-04T13:00:30;3.60;;;1.40;;
55146;SDS011;41039;49.830;23.988;2023-06-04T13:02:56;1.90;;;1.27;;
55146;SDS011;41039;49.830;23.988;2023-06-04T13:05:21;2.93;;;1.47;;
55146;SDS011;41039;49.830;23.988;2023-06-04T13:07:46;7.00;;;2.65;;
55146;SDS011;41039;49.830;23.988;2023-06-04T13:10:11;5.27;;;1.50;;
55146;SDS011;41039;49.830;23.988;2023-06-04T13:12:37;2.73;;;1.73;;
55146;SDS011;41039;49.830;23.988;2023-06-04T13:15:02;3.67;;;1.50;;
55146;SDS011;41039;49.830;23.988;2023-06-04T13:17:27;2.10;;;1.13;;
55146;SDS011;41039;49.830;23.988;2023-06-04T13:19:53;2.85;;;1.58;;
55146;SDS011;41039;49.830;23.988;2023-06-04T13:22:18;2.20;;;1.23;;
55146;SDS011;41039;49.830;23.988;2023-06-04T13:24:43;3.30;;;1.40;;
55146;SDS011;41039;49.830;23.988;2023-06-04T13:27:08;2.50;;;1.30;;
55146;SDS011;41039;49.830;23.988;2023-06-04T13:29:34;3.03;;;1.63;;
55146;SDS011;41039;49.830;23.988;2023-06-04T13:31:59;4.07;;;1.20;;
55146;SDS011;41039;49.830;23.988;2023-06-04T13:34:25;3.92;;;1.50;;
55146;SDS011;41039;49.830;23.988;2023-06-04T13:36:50;4.28;;;2.10;;
55146;SDS011;41039;49.830;23.988;2023-06-04T13:39:15;2.80;;;1.33;;
55146;SDS011;41039;49.830;23.988;2023-06-04T13:41:41;3.03;;;1.17;;
55146;SDS011;41039;49.830;23.988;2023-06-04T13:44:06;3.45;;;1.40;;
55146;SDS011;41039;49.830;23.988;2023-06-04T13:46:32;3.35;;;1.30;;
55146;SDS011;41039;49.830;23.988;2023-06-04T13:48:57;4.17;;;1.60;;
55146;SDS011;41039;49.830;23.988;2023-06-04T13:51:22;3.50;;;1.55;;
55146;SDS011;41039;49.830;23.988;2023-06-04T13:53:47;4.37;;;1.80;;
55146;SDS011;41039;49.830;23.988;2023-06-04T13:56:13;4.15;;;1.30;;
55146;SDS011;41039;49.830;23.988;2023-06-04T13:58:39;2.83;;;2.20;;
55146;SDS011;41039;49.830;23.988;2023-06-04T14:01:04;2.75;;;1.23;;
55146;SDS011;41039;49.830;23.988;2023-06-04T14:03:29;4.77;;;1.83;;
55146;SDS011;41039;49.830;23.988;2023-06-04T14:05:54;4.30;;;1.70;;
55146;SDS011;41039;49.830;23.988;2023-06-04T14:08:20;2.53;;;1.30;;
55146;SDS011;41039;49.830;23.988;2023-06-04T14:10:45;4.77;;;1.53;;
55146;SDS011;41039;49.830;23.988;2023-06-04T14:13:10;3.60;;;2.27;;
55146;SDS011;41039;49.830;23.988;2023-06-04T14:15:35;2.77;;;1.57;;
55146;SDS011;41039;49.830;23.988;2023-06-04T14:18:01;3.72;;;2.17;;
55146;SDS011;41039;49.830;23.988;2023-06-04T14:20:27;4.30;;;1.88;;
55146;SDS011;41039;49.830;23.988;2023-06-04T14:22:52;3.38;;;1.48;;
55146;SDS011;41039;49.830;23.988;2023-06-04T14:25:17;3.27;;;1.50;;
55146;SDS011;41039;49.830;23.988;2023-06-04T14:27:42;3.10;;;1.57;;
55146;SDS011;41039;49.830;23.988;2023-06-04T14:30:08;3.10;;;1.50;;
55146;SDS011;41039;49.830;23.988;2023-06-04T14:32:35;3.80;;;1.85;;
55146;SDS011;41039;49.830;23.988;2023-06-04T14:35:01;2.45;;;1.42;;